Iacri, Brazil
Current Conditions -  °F | °C
As of 8:00 AM on Thursday 29 Jan 2015 (Local Time) from SBDN Reporting Station
Broken Clouds Broken Clouds  
Wind Chill: 72°   Ceiling: 7000
Heat Index: 72°   Visibility: 6mi
Dew Point: 68°   Wind: 14mph
Humidity: 88%   Direction: 40°NE
Pressure: 29.97"   Gusts: NA
Location:  21.86°S, 50.69°W
Report Text: SBDN 291000Z 04012KT 9999 SCT010 BKN070 BKN100 22/20 Q1015
Loading
Personal Weather Stations






























Interactive Weather Map New forecast layout! Learn more

10-Day Weather Forecast

Advertisements
Track Severe Weather on mobile